createdAt,value
2017-12-09T01:37:57.866Z,1004.26
2017-12-09T01:37:58.368Z,1004.26
2017-12-09T01:37:58.967Z,1004.29
2017-12-09T01:37:59.567Z,1004.28
2017-12-09T01:38:00.165Z,1004.26
2017-12-09T01:38:00.766Z,1004.26
2017-12-09T01:38:01.367Z,1004.24
2017-12-09T01:38:55.411Z,1004.25
2017-12-09T01:38:56.007Z,1004.25
2017-12-09T01:38:56.606Z,1004.30
2017-12-09T01:38:57.207Z,1004.27
2017-12-09T01:38:57.807Z,1004.28
2017-12-09T01:38:58.411Z,1004.26
2017-12-09T01:38:59.005Z,1004.28
2017-12-09T01:39:53.065Z,1004.28
2017-12-09T01:39:53.659Z,1004.28
2017-12-09T01:39:54.258Z,1004.27
2017-12-09T01:39:54.859Z,1004.30
2017-12-09T01:39:55.458Z,1004.28
2017-12-09T01:39:56.060Z,1004.27
2017-12-09T01:39:56.658Z,1004.28
2017-12-09T01:40:50.717Z,1004.28
2017-12-09T01:40:51.314Z,1004.28
2017-12-09T01:40:51.913Z,1004.29
2017-12-09T01:40:52.511Z,1004.25
2017-12-09T01:40:53.111Z,1004.32
2017-12-09T01:40:53.711Z,1004.27
2017-12-09T01:40:54.310Z,1004.26
2017-12-09T01:41:50.827Z,1004.38
2017-12-09T01:41:51.422Z,1004.31
2017-12-09T01:41:52.020Z,1004.34
2017-12-09T01:42:46.020Z,1004.27
2017-12-09T01:42:46.617Z,1004.24
2017-12-09T01:42:47.217Z,1004.27
2017-12-09T01:42:47.817Z,1004.27
2017-12-09T01:42:48.420Z,1004.26
2017-12-09T01:42:49.016Z,1004.27
2017-12-09T01:42:49.617Z,1004.27
2017-12-09T01:43:43.703Z,1004.33
2017-12-09T01:43:44.268Z,1004.34
2017-12-09T01:43:44.869Z,1004.32
2017-12-09T01:43:45.468Z,1004.35
2017-12-09T01:43:46.069Z,1004.34
2017-12-09T01:43:46.667Z,1004.35
2017-12-09T01:43:47.270Z,1004.30
2017-12-09T01:44:41.325Z,1004.34
2017-12-09T01:44:41.921Z,1004.36
2017-12-09T01:44:42.520Z,1004.34
2017-12-09T01:44:43.119Z,1004.35
2017-12-09T01:44:43.721Z,1004.37
2017-12-09T01:44:44.319Z,1004.35
2017-12-09T01:44:44.929Z,1004.35
2017-12-09T01:45:38.976Z,1004.31
2017-12-09T01:45:39.574Z,1004.28
2017-12-09T01:45:40.172Z,1004.28
2017-12-09T01:45:40.772Z,1004.29
2017-12-09T01:45:41.373Z,1004.26
2017-12-09T01:45:41.971Z,1004.24
2017-12-09T01:45:42.572Z,1004.24
2017-12-09T01:46:36.118Z,1004.29
2017-12-09T01:46:36.714Z,1004.35
2017-12-09T01:46:37.313Z,1004.32
2017-12-09T01:46:37.917Z,1004.32
2017-12-09T01:46:38.512Z,1004.33
2017-12-09T01:46:39.113Z,1004.33
2017-12-09T01:46:39.713Z,1004.31
2017-12-09T01:46:40.311Z,1004.34
2017-12-09T01:47:34.280Z,1004.28
2017-12-09T01:47:34.877Z,1004.35
2017-12-09T01:47:35.475Z,1004.34
2017-12-09T01:47:36.076Z,1004.40
2017-12-09T01:47:36.675Z,1004.33
2017-12-09T01:47:37.275Z,1004.30
2017-12-09T01:47:37.880Z,1004.34
2017-12-09T01:48:51.928Z,1004.30
2017-12-09T01:48:52.496Z,1004.33
2017-12-09T01:48:53.096Z,1004.34
2017-12-09T01:48:53.697Z,1004.33
2017-12-09T01:48:54.295Z,1004.32
2017-12-09T01:48:54.895Z,1004.31
2017-12-09T01:48:55.495Z,1004.31
2017-12-09T01:49:49.552Z,1004.32
2017-12-09T01:49:50.148Z,1004.34
2017-12-09T01:49:50.748Z,1004.27
2017-12-09T01:49:51.347Z,1004.29
2017-12-09T01:49:51.946Z,1004.31
2017-12-09T01:49:52.547Z,1004.31
2017-12-09T01:49:53.147Z,1004.30
2017-12-09T01:50:47.203Z,1004.29
2017-12-09T01:50:47.801Z,1004.25
2017-12-09T01:50:48.399Z,1004.24
2017-12-09T01:50:49.001Z,1004.27
2017-12-09T01:50:49.599Z,1004.28
2017-12-09T01:50:50.199Z,1004.30
2017-12-09T01:50:50.799Z,1004.27
2017-12-09T01:51:44.855Z,1004.34
2017-12-09T01:51:45.452Z,1004.33
2017-12-09T01:51:46.052Z,1004.32
2017-12-09T01:51:46.652Z,1004.31
2017-12-09T01:51:47.253Z,1004.23
2017-12-09T01:51:47.851Z,1004.21
2017-12-09T01:51:48.454Z,1004.18
2017-12-09T01:52:42.507Z,1004.34
2017-12-09T01:52:43.103Z,1004.35
2017-12-09T01:52:43.703Z,1004.37
2017-12-09T01:52:44.303Z,1004.32
2017-12-09T01:52:44.904Z,1004.32
2017-12-09T01:52:45.502Z,1004.29
2017-12-09T01:52:46.103Z,1004.27
2017-12-09T01:53:40.160Z,1004.32
2017-12-09T01:53:40.756Z,1004.29
2017-12-09T01:53:41.354Z,1004.29
2017-12-09T01:53:41.955Z,1004.28
2017-12-09T01:53:42.554Z,1004.28
2017-12-09T01:53:43.154Z,1004.35
2017-12-09T01:53:43.754Z,1004.32
2017-12-09T01:54:37.834Z,1004.32
2017-12-09T01:54:38.407Z,1004.32
2017-12-09T01:54:39.006Z,1004.30
2017-12-09T01:54:39.607Z,1004.34
2017-12-09T01:54:40.206Z,1004.30
2017-12-09T01:54:40.805Z,1004.33
2017-12-09T01:54:41.406Z,1004.34
2017-12-09T01:55:35.461Z,1004.29
2017-12-09T01:55:36.058Z,1004.28
2017-12-09T01:55:36.657Z,1004.28
2017-12-09T01:55:37.258Z,1004.29
2017-12-09T01:55:37.858Z,1004.30
2017-12-09T01:55:38.457Z,1004.27
2017-12-09T01:55:39.057Z,1004.29
2017-12-09T01:56:32.603Z,1004.43
2017-12-09T01:56:33.202Z,1004.41
2017-12-09T01:56:33.799Z,1004.41
2017-12-09T01:56:34.398Z,1004.36
2017-12-09T01:56:34.997Z,1004.35
2017-12-09T01:56:35.598Z,1004.34
2017-12-09T01:56:36.198Z,1004.38
2017-12-09T01:56:36.799Z,1004.37
2017-12-09T01:57:30.766Z,1004.26
2017-12-09T01:57:31.362Z,1004.25
2017-12-09T01:57:31.962Z,1004.29
2017-12-09T01:57:32.561Z,1004.26
2017-12-09T01:57:33.160Z,1004.27
2017-12-09T01:57:33.760Z,1004.26
2017-12-09T01:57:34.360Z,1004.26
2017-12-09T01:58:48.385Z,1004.36
2017-12-09T01:58:48.980Z,1004.34
2017-12-09T01:58:49.581Z,1004.28
2017-12-09T01:58:50.186Z,1004.32
2017-12-09T01:58:50.780Z,1004.25
2017-12-09T01:58:51.380Z,1004.27
2017-12-09T01:58:51.983Z,1004.30
2017-12-09T01:59:45.557Z,1004.20
2017-12-09T01:59:46.123Z,1004.22
2017-12-09T01:59:46.722Z,1004.23
2017-12-09T01:59:47.322Z,1004.22
2017-12-09T01:59:47.922Z,1004.24
2017-12-09T01:59:48.522Z,1004.19
2017-12-09T01:59:49.122Z,1004.22
2017-12-09T01:59:49.725Z,1004.23
2017-12-09T02:00:43.689Z,1004.19
2017-12-09T02:00:44.290Z,1004.17
2017-12-09T02:00:44.885Z,1004.18
2017-12-09T02:00:45.486Z,1004.20
2017-12-09T02:00:46.085Z,1004.17
2017-12-09T02:00:46.684Z,1004.18
2017-12-09T02:00:47.285Z,1004.19
2017-12-09T02:02:01.308Z,1004.14
2017-12-09T02:02:01.906Z,1004.15
2017-12-09T02:02:02.504Z,1004.17
2017-12-09T02:02:03.104Z,1004.14
2017-12-09T02:02:03.704Z,1004.13
2017-12-09T02:02:04.303Z,1004.12
2017-12-09T02:02:04.915Z,1004.12
2017-12-09T02:02:58.960Z,1004.14
2017-12-09T02:02:59.556Z,1004.15
2017-12-09T02:03:00.156Z,1004.16
2017-12-09T02:03:00.755Z,1004.15
2017-12-09T02:03:01.360Z,1004.14
2017-12-09T02:03:01.956Z,1004.12
2017-12-09T02:03:02.560Z,1004.11
2017-12-09T02:03:56.610Z,1004.15
2017-12-09T02:03:57.207Z,1004.10
2017-12-09T02:03:57.808Z,1004.10
2017-12-09T02:03:58.410Z,1004.12
2017-12-09T02:03:59.006Z,1004.09
2017-12-09T02:03:59.606Z,1004.12
2017-12-09T02:04:00.207Z,1004.14
2017-12-09T02:04:54.292Z,1003.99
2017-12-09T02:04:54.860Z,1004.03
2017-12-09T02:04:55.460Z,1003.96
2017-12-09T02:04:56.059Z,1003.99
2017-12-09T02:04:56.661Z,1004.01
2017-12-09T02:04:57.260Z,1004.01
2017-12-09T02:04:57.858Z,1003.98
2017-12-09T02:05:51.915Z,1004.05
2017-12-09T02:05:52.511Z,1004.08
2017-12-09T02:05:53.112Z,1004.05
2017-12-09T02:05:53.711Z,1004.06
2017-12-09T02:05:54.314Z,1004.02
2017-12-09T02:05:54.930Z,1004.06
2017-12-09T02:05:55.509Z,1004.05
2017-12-09T02:06:49.568Z,1004.03
2017-12-09T02:06:50.163Z,1004.01
2017-12-09T02:06:50.760Z,1004.02
2017-12-09T02:06:51.363Z,1003.99
2017-12-09T02:06:51.962Z,1004.03
2017-12-09T02:06:52.563Z,1004.02
2017-12-09T02:06:53.163Z,1004.02
2017-12-09T02:07:46.707Z,1004.02
2017-12-09T02:07:47.304Z,1004.02
2017-12-09T02:07:47.904Z,1004.04
2017-12-09T02:07:48.504Z,1004.03
2017-12-09T02:07:49.104Z,1004.04
2017-12-09T02:07:49.702Z,1004.02
2017-12-09T02:07:50.302Z,1004.03
2017-12-09T02:07:50.903Z,1004.04
2017-12-09T02:08:44.869Z,1003.94
2017-12-09T02:08:45.472Z,1003.97
2017-12-09T02:08:46.069Z,1003.94
2017-12-09T02:08:46.670Z,1004.00
2017-12-09T02:08:47.266Z,1003.99
2017-12-09T02:08:47.866Z,1003.98
2017-12-09T02:08:48.466Z,1003.96
2017-12-09T02:10:02.519Z,1003.90
2017-12-09T02:10:03.087Z,1003.91
2017-12-09T02:10:03.685Z,1003.89
2017-12-09T02:10:04.285Z,1003.90
2017-12-09T02:10:04.885Z,1003.90
2017-12-09T02:10:05.484Z,1003.93
2017-12-09T02:10:06.083Z,1003.95
2017-12-09T02:11:00.141Z,1003.93
2017-12-09T02:11:00.737Z,1003.95
2017-12-09T02:11:01.337Z,1003.98
2017-12-09T02:11:01.936Z,1003.98
2017-12-09T02:11:02.537Z,1003.98
2017-12-09T02:11:03.137Z,1003.94
2017-12-09T02:11:03.738Z,1003.96
2017-12-09T02:11:57.283Z,1003.99
2017-12-09T02:11:57.878Z,1003.98
2017-12-09T02:11:58.477Z,1003.97
2017-12-09T02:11:59.077Z,1003.97
2017-12-09T02:11:59.678Z,1003.98
2017-12-09T02:12:00.277Z,1003.99
2017-12-09T02:12:00.877Z,1003.98
2017-12-09T02:12:01.477Z,1003.98
2017-12-09T02:12:55.447Z,1004.01
2017-12-09T02:12:56.044Z,1003.93
2017-12-09T02:12:56.639Z,1003.94
2017-12-09T02:12:57.240Z,1003.92
2017-12-09T02:12:57.839Z,1003.95
2017-12-09T02:12:58.439Z,1003.95
2017-12-09T02:12:59.038Z,1003.96
2017-12-09T02:14:13.063Z,1003.89
2017-12-09T02:14:13.660Z,1003.88
2017-12-09T02:14:14.260Z,1003.89
2017-12-09T02:14:14.861Z,1003.91
2017-12-09T02:14:15.460Z,1003.92
2017-12-09T02:14:16.060Z,1003.89
2017-12-09T02:14:16.659Z,1003.90
2017-12-09T02:15:10.745Z,1003.96
2017-12-09T02:15:11.313Z,1003.96
2017-12-09T02:15:11.912Z,1003.96
2017-12-09T02:15:12.512Z,1003.95
2017-12-09T02:15:13.111Z,1003.96
2017-12-09T02:15:13.712Z,1003.97
2017-12-09T02:15:14.312Z,1003.97
2017-12-09T02:16:08.369Z,1003.99
2017-12-09T02:16:08.964Z,1003.94
2017-12-09T02:16:09.563Z,1003.90
2017-12-09T02:16:10.164Z,1003.87
2017-12-09T02:16:10.764Z,1003.87
2017-12-09T02:16:11.365Z,1003.83
2017-12-09T02:16:11.964Z,1003.81
2017-12-09T02:17:06.021Z,1003.87
2017-12-09T02:17:06.617Z,1003.89
2017-12-09T02:17:07.217Z,1003.91
2017-12-09T02:17:07.815Z,1003.86
2017-12-09T02:17:08.415Z,1003.85
2017-12-09T02:17:09.014Z,1003.86
2017-12-09T02:17:09.615Z,1003.87
2017-12-09T02:18:03.671Z,1003.94
2017-12-09T02:18:04.267Z,1003.94
2017-12-09T02:18:04.866Z,1003.92
2017-12-09T02:18:05.467Z,1003.92
2017-12-09T02:18:06.066Z,1003.94
2017-12-09T02:18:06.666Z,1003.92
2017-12-09T02:18:07.266Z,1003.97
2017-12-09T02:19:01.324Z,1003.98
2017-12-09T02:19:01.925Z,1003.99
2017-12-09T02:19:02.519Z,1003.98
2017-12-09T02:19:03.120Z,1003.95
2017-12-09T02:19:03.719Z,1003.91
2017-12-09T02:19:04.318Z,1003.89
2017-12-09T02:19:04.919Z,1003.92
2017-12-09T02:19:58.976Z,1003.98
2017-12-09T02:19:59.570Z,1004.02
2017-12-09T02:20:00.170Z,1003.98
2017-12-09T02:20:00.771Z,1004.03
2017-12-09T02:20:01.370Z,1004.00
2017-12-09T02:20:01.971Z,1003.96
2017-12-09T02:20:02.569Z,1004.01
2017-12-09T02:20:56.654Z,1004.01
2017-12-09T02:20:57.223Z,1003.99
2017-12-09T02:20:57.823Z,1003.96
2017-12-09T02:20:58.422Z,1003.95
2017-12-09T02:20:59.024Z,1003.93
2017-12-09T02:20:59.621Z,1003.96
2017-12-09T02:21:00.220Z,1003.94
2017-12-09T02:21:56.737Z,1003.92
2017-12-09T02:21:57.331Z,1003.90
2017-12-09T02:21:57.931Z,1003.87
2017-12-09T02:22:56.434Z,1003.95
2017-12-09T02:22:57.031Z,1003.92
2017-12-09T02:22:57.631Z,1003.88
2017-12-09T02:22:58.232Z,1003.93
2017-12-09T02:22:58.830Z,1003.89
2017-12-09T02:22:59.431Z,1003.91
2017-12-09T02:23:00.030Z,1003.86
2017-12-09T02:23:00.629Z,1003.89
2017-12-09T02:23:01.228Z,1003.94
2017-12-09T02:23:01.829Z,1003.89
2017-12-09T02:23:02.428Z,1003.90
2017-12-09T02:23:03.027Z,1003.87
2017-12-09T02:23:03.628Z,1003.89
2017-12-09T02:23:04.229Z,1003.89
2017-12-09T02:23:04.827Z,1003.89
2017-12-09T02:23:05.427Z,1003.90
2017-12-09T02:23:06.026Z,1003.94
2017-12-09T02:51:41.296Z,1003.63
2017-12-09T02:51:41.864Z,1003.67
2017-12-09T02:51:42.465Z,1003.64
2017-12-09T02:51:43.064Z,1003.64
2017-12-09T02:51:43.664Z,1003.65
2017-12-09T02:51:44.266Z,1003.62
2017-12-09T02:51:44.865Z,1003.65
2017-12-09T02:52:58.889Z,1003.74
2017-12-09T02:52:59.487Z,1003.73
2017-12-09T02:53:00.085Z,1003.74
2017-12-09T02:53:00.686Z,1003.72
2017-12-09T02:53:01.291Z,1003.71
2017-12-09T02:53:01.882Z,1003.71
2017-12-09T02:53:02.482Z,1003.71
2017-12-09T02:53:56.574Z,1003.65
2017-12-09T02:53:57.139Z,1003.66
2017-12-09T02:53:57.739Z,1003.64
2017-12-09T02:53:58.338Z,1003.67
2017-12-09T02:53:58.938Z,1003.70
2017-12-09T02:53:59.538Z,1003.67
2017-12-09T02:54:00.137Z,1003.69
2017-12-09T02:54:54.194Z,1003.74
2017-12-09T02:54:54.791Z,1003.70
2017-12-09T02:54:55.391Z,1003.66
2017-12-09T02:54:55.991Z,1003.69
2017-12-09T02:54:56.590Z,1003.72
2017-12-09T02:54:57.191Z,1003.76
2017-12-09T02:54:57.792Z,1003.74
2017-12-09T02:55:51.852Z,1003.70
2017-12-09T02:55:52.442Z,1003.74
2017-12-09T02:55:53.045Z,1003.72
2017-12-09T02:55:53.641Z,1003.72
2017-12-09T02:55:54.242Z,1003.73
2017-12-09T02:55:54.842Z,1003.73
2017-12-09T02:55:55.440Z,1003.72
2017-12-09T02:56:49.498Z,1003.70
2017-12-09T02:56:50.096Z,1003.74
2017-12-09T02:56:50.694Z,1003.74
2017-12-09T02:56:51.294Z,1003.76
2017-12-09T02:56:51.894Z,1003.77
2017-12-09T02:56:52.495Z,1003.75
2017-12-09T02:56:53.094Z,1003.79
2017-12-09T02:57:47.969Z,1003.74
2017-12-09T02:57:48.566Z,1003.73
2017-12-09T02:57:49.165Z,1003.74
2017-12-09T02:57:49.766Z,1003.71
2017-12-09T02:57:50.364Z,1003.73
2017-12-09T02:57:50.964Z,1003.72
2017-12-09T02:57:51.566Z,1003.73
2017-12-09T02:58:45.621Z,1003.74
2017-12-09T02:58:46.218Z,1003.80
2017-12-09T02:58:46.818Z,1003.78
2017-12-09T02:58:47.418Z,1003.77
2017-12-09T02:58:48.016Z,1003.80
2017-12-09T02:58:48.617Z,1003.78
2017-12-09T02:58:49.218Z,1003.83
2017-12-09T02:59:43.302Z,1003.81
2017-12-09T02:59:43.869Z,1003.81
2017-12-09T02:59:44.468Z,1003.76
2017-12-09T02:59:45.072Z,1003.77
2017-12-09T02:59:45.669Z,1003.76
2017-12-09T02:59:46.273Z,1003.81
2017-12-09T02:59:46.868Z,1003.75
2017-12-09T03:00:40.925Z,1003.78
2017-12-09T03:00:41.524Z,1003.77
2017-12-09T03:00:42.124Z,1003.77
2017-12-09T03:00:42.723Z,1003.78
2017-12-09T03:00:43.321Z,1003.78
2017-12-09T03:00:43.922Z,1003.75
2017-12-09T03:00:44.520Z,1003.80
2017-12-09T03:01:38.577Z,1003.82
2017-12-09T03:01:39.173Z,1003.84
2017-12-09T03:01:39.771Z,1003.77
2017-12-09T03:01:40.373Z,1003.80
2017-12-09T03:01:40.976Z,1003.80
2017-12-09T03:01:41.572Z,1003.74
2017-12-09T03:01:42.172Z,1003.74
2017-12-09T03:02:35.719Z,1003.77
2017-12-09T03:02:36.315Z,1003.73
2017-12-09T03:02:36.916Z,1003.76
2017-12-09T03:02:37.514Z,1003.72
2017-12-09T03:02:38.113Z,1003.76
2017-12-09T03:02:38.714Z,1003.74
2017-12-09T03:02:39.316Z,1003.72
2017-12-09T03:02:39.913Z,1003.70
2017-12-09T03:03:33.879Z,1003.82
2017-12-09T03:03:34.481Z,1003.81
2017-12-09T03:03:35.082Z,1003.80
2017-12-09T03:03:35.676Z,1003.78
2017-12-09T03:03:36.277Z,1003.80
2017-12-09T03:03:36.875Z,1003.78
2017-12-09T03:03:37.475Z,1003.81
2017-12-09T03:04:51.528Z,1003.89
2017-12-09T03:04:52.097Z,1003.83
2017-12-09T03:04:52.696Z,1003.82
2017-12-09T03:04:53.296Z,1003.83
2017-12-09T03:04:53.895Z,1003.84
2017-12-09T03:04:54.494Z,1003.82
2017-12-09T03:04:55.093Z,1003.82
2017-12-09T03:05:49.149Z,1003.80
2017-12-09T03:05:49.754Z,1003.80
2017-12-09T03:05:50.346Z,1003.78
2017-12-09T03:05:50.947Z,1003.75
2017-12-09T03:05:51.546Z,1003.79
2017-12-09T03:05:52.147Z,1003.79
2017-12-09T03:05:52.745Z,1003.80
2017-12-09T03:06:46.804Z,1003.75
2017-12-09T03:06:47.460Z,1003.77
2017-12-09T03:06:48.019Z,1003.78
2017-12-09T03:06:48.600Z,1003.77
2017-12-09T03:06:49.200Z,1003.74
2017-12-09T03:06:49.800Z,1003.75
2017-12-09T03:06:50.404Z,1003.70
2017-12-09T03:07:44.455Z,1003.75
2017-12-09T03:07:45.052Z,1003.75
2017-12-09T03:07:45.652Z,1003.75
2017-12-09T03:07:46.260Z,1003.76
2017-12-09T03:07:46.851Z,1003.76
2017-12-09T03:07:47.450Z,1003.73
2017-12-09T03:07:48.051Z,1003.74
2017-12-09T03:08:42.107Z,1003.83
2017-12-09T03:08:42.704Z,1003.83
2017-12-09T03:08:43.303Z,1003.78
2017-12-09T03:08:43.903Z,1003.81
2017-12-09T03:08:44.503Z,1003.81
2017-12-09T03:08:45.103Z,1003.82
2017-12-09T03:08:45.703Z,1003.83
2017-12-09T03:09:39.255Z,1003.86
2017-12-09T03:09:39.844Z,1003.89
2017-12-09T03:09:40.446Z,1003.89
2017-12-09T03:09:41.043Z,1003.86
2017-12-09T03:09:41.644Z,1003.88
2017-12-09T03:09:42.244Z,1003.84
2017-12-09T03:09:42.848Z,1003.89
2017-12-09T03:09:43.442Z,1003.85
2017-12-09T03:10:37.443Z,1003.79
2017-12-09T03:10:38.010Z,1003.78
2017-12-09T03:10:38.606Z,1003.81
2017-12-09T03:10:39.206Z,1003.80
2017-12-09T03:10:39.806Z,1003.76
2017-12-09T03:10:40.406Z,1003.79
2017-12-09T03:10:41.006Z,1003.83
2017-12-09T03:11:55.029Z,1003.84
2017-12-09T03:11:55.627Z,1003.88
2017-12-09T03:11:56.230Z,1003.82
2017-12-09T03:11:56.826Z,1003.86
2017-12-09T03:11:57.427Z,1003.86
2017-12-09T03:11:58.025Z,1003.86
2017-12-09T03:11:58.625Z,1003.90
2017-12-09T03:12:52.175Z,1003.77
2017-12-09T03:12:52.770Z,1003.76
2017-12-09T03:12:53.370Z,1003.76
2017-12-09T03:12:53.967Z,1003.73
2017-12-09T03:12:54.567Z,1003.81
2017-12-09T03:12:55.167Z,1003.80
2017-12-09T03:12:55.767Z,1003.76
2017-12-09T03:12:56.367Z,1003.81
2017-12-09T03:13:49.925Z,1003.87
2017-12-09T03:13:50.523Z,1003.86
2017-12-09T03:13:51.122Z,1003.84
2017-12-09T03:13:51.722Z,1003.81
2017-12-09T03:13:52.322Z,1003.82
2017-12-09T03:13:52.945Z,1003.82
2017-12-09T03:13:53.522Z,1003.81
2017-12-09T03:13:54.121Z,1003.86
2017-12-09T03:14:48.089Z,1003.81
2017-12-09T03:14:48.689Z,1003.79
2017-12-09T03:14:49.284Z,1003.80
2017-12-09T03:14:49.883Z,1003.78
2017-12-09T03:14:50.482Z,1003.81
2017-12-09T03:14:51.084Z,1003.79
2017-12-09T03:14:51.687Z,1003.76
2017-12-09T03:16:05.731Z,1003.75
2017-12-09T03:16:06.306Z,1003.71
2017-12-09T03:16:06.906Z,1003.73
2017-12-09T03:16:07.506Z,1003.69
2017-12-09T03:16:08.107Z,1003.69
2017-12-09T03:16:08.703Z,1003.74
2017-12-09T03:16:09.303Z,1003.75
2017-12-09T03:17:02.855Z,1003.73
2017-12-09T03:17:03.446Z,1003.72
2017-12-09T03:17:04.047Z,1003.71
2017-12-09T03:17:04.644Z,1003.72
2017-12-09T03:17:05.245Z,1003.68
2017-12-09T03:17:05.844Z,1003.68
2017-12-09T03:17:06.444Z,1003.68
2017-12-09T03:17:07.043Z,1003.68
2017-12-09T03:18:01.009Z,1003.73
2017-12-09T03:18:01.611Z,1003.73
2017-12-09T03:18:02.207Z,1003.71
2017-12-09T03:18:02.807Z,1003.69
2017-12-09T03:18:03.406Z,1003.72
2017-12-09T03:18:04.006Z,1003.70
2017-12-09T03:18:04.605Z,1003.66
2017-12-09T03:19:18.628Z,1003.78
2017-12-09T03:19:19.227Z,1003.82
2017-12-09T03:19:19.827Z,1003.79
2017-12-09T03:19:20.427Z,1003.81
2017-12-09T03:19:21.028Z,1003.79
2017-12-09T03:19:21.625Z,1003.72
2017-12-09T03:19:22.230Z,1003.84
2017-12-09T03:20:16.281Z,1003.74
2017-12-09T03:20:16.879Z,1003.76
2017-12-09T03:20:17.477Z,1003.74
2017-12-09T03:20:18.088Z,1003.73
2017-12-09T03:20:18.678Z,1003.74
2017-12-09T03:20:19.277Z,1003.69
2017-12-09T03:20:19.877Z,1003.68
2017-12-09T03:21:13.966Z,1003.67
2017-12-09T03:21:14.531Z,1003.66
2017-12-09T03:21:15.131Z,1003.65
2017-12-09T03:21:15.731Z,1003.67
2017-12-09T03:21:16.330Z,1003.67
2017-12-09T03:21:16.929Z,1003.67
2017-12-09T03:21:17.531Z,1003.72
2017-12-09T03:22:11.584Z,1003.74
2017-12-09T03:22:12.182Z,1003.74
2017-12-09T03:22:12.782Z,1003.70
2017-12-09T03:22:13.381Z,1003.75
2017-12-09T03:22:13.982Z,1003.72
2017-12-09T03:22:14.581Z,1003.70
2017-12-09T03:22:15.181Z,1003.69
2017-12-09T03:23:09.238Z,1003.66
2017-12-09T03:23:09.834Z,1003.65
2017-12-09T03:23:10.433Z,1003.65
2017-12-09T03:23:11.033Z,1003.64
2017-12-09T03:23:11.632Z,1003.63
2017-12-09T03:23:12.233Z,1003.63
2017-12-09T03:23:12.838Z,1003.66
2017-12-09T03:24:06.378Z,1003.77
2017-12-09T03:24:06.974Z,1003.74
2017-12-09T03:24:07.575Z,1003.73
2017-12-09T03:24:08.174Z,1003.73
2017-12-09T03:24:08.774Z,1003.73
2017-12-09T03:24:09.375Z,1003.72
2017-12-09T03:24:09.973Z,1003.76
2017-12-09T03:24:10.573Z,1003.69
2017-12-09T03:25:04.131Z,1003.77
2017-12-09T03:25:04.731Z,1003.72
2017-12-09T03:25:05.328Z,1003.68
2017-12-09T03:25:05.932Z,1003.72
2017-12-09T03:25:06.528Z,1003.68
2017-12-09T03:25:07.127Z,1003.70
2017-12-09T03:25:07.729Z,1003.69
2017-12-09T03:25:08.329Z,1003.69
2017-12-09T03:26:01.888Z,1003.65
2017-12-09T03:26:02.483Z,1003.70
2017-12-09T03:26:03.084Z,1003.69
2017-12-09T03:26:03.682Z,1003.68
2017-12-09T03:26:04.284Z,1003.76
2017-12-09T03:26:04.884Z,1003.72
2017-12-09T03:26:05.482Z,1003.73
2017-12-09T03:26:06.091Z,1003.69
2017-12-09T03:27:00.080Z,1003.66
2017-12-09T03:27:00.649Z,1003.64
2017-12-09T03:27:01.245Z,1003.66
2017-12-09T03:27:01.845Z,1003.69
2017-12-09T03:27:02.443Z,1003.64
2017-12-09T03:27:03.045Z,1003.66
2017-12-09T03:27:03.644Z,1003.67
2017-12-09T03:28:17.670Z,1003.60
2017-12-09T03:28:18.266Z,1003.59
2017-12-09T03:28:18.865Z,1003.54
2017-12-09T03:28:19.464Z,1003.59
2017-12-09T03:28:20.064Z,1003.56
2017-12-09T03:28:20.665Z,1003.59
2017-12-09T03:28:21.263Z,1003.58
2017-12-09T03:29:15.319Z,1003.61
2017-12-09T03:29:15.915Z,1003.64
2017-12-09T03:29:16.527Z,1003.63
2017-12-09T03:29:17.115Z,1003.63
2017-12-09T03:29:17.716Z,1003.62
2017-12-09T03:29:18.316Z,1003.64
2017-12-09T03:29:18.915Z,1003.64
2017-12-09T03:30:12.974Z,1003.60
2017-12-09T03:30:13.569Z,1003.59
2017-12-09T03:30:14.169Z,1003.60
2017-12-09T03:30:14.772Z,1003.55
2017-12-09T03:30:15.369Z,1003.52
2017-12-09T03:30:15.969Z,1003.52
2017-12-09T03:30:16.568Z,1003.56
2017-12-09T03:31:10.625Z,1003.50
2017-12-09T03:31:11.222Z,1003.47
2017-12-09T03:31:11.823Z,1003.49
2017-12-09T03:31:12.421Z,1003.46
2017-12-09T03:31:13.021Z,1003.50
2017-12-09T03:31:13.624Z,1003.52
2017-12-09T03:31:14.220Z,1003.51
2017-12-09T03:32:08.306Z,1003.67
2017-12-09T03:32:08.870Z,1003.65
2017-12-09T03:32:09.470Z,1003.64
2017-12-09T03:32:10.070Z,1003.60
2017-12-09T03:32:10.671Z,1003.59
2017-12-09T03:32:11.270Z,1003.62
2017-12-09T03:32:11.870Z,1003.61
2017-12-09T03:33:05.926Z,1003.55
2017-12-09T03:33:06.524Z,1003.55
2017-12-09T03:33:07.125Z,1003.55
2017-12-09T03:33:07.723Z,1003.56
2017-12-09T03:33:08.322Z,1003.55
2017-12-09T03:33:08.922Z,1003.56
2017-12-09T03:33:09.523Z,1003.55
2017-12-09T03:34:03.067Z,1003.52
2017-12-09T03:34:03.664Z,1003.53
2017-12-09T03:34:04.266Z,1003.55
2017-12-09T03:34:04.866Z,1003.57
2017-12-09T03:34:05.464Z,1003.52
2017-12-09T03:34:06.062Z,1003.55
2017-12-09T03:34:06.662Z,1003.52
2017-12-09T03:34:07.263Z,1003.50
2017-12-09T03:35:02.254Z,1003.53
2017-12-09T03:35:02.852Z,1003.50
2017-12-09T03:35:03.460Z,1003.52
2017-12-09T03:35:04.050Z,1003.53
2017-12-09T03:35:04.650Z,1003.55
2017-12-09T03:35:05.250Z,1003.51
2017-12-09T03:35:59.804Z,1003.51
2017-12-09T03:36:00.401Z,1003.49
2017-12-09T03:36:00.999Z,1003.49
2017-12-09T03:36:01.599Z,1003.51
2017-12-09T03:36:02.199Z,1003.50
2017-12-09T03:36:02.800Z,1003.42
2017-12-09T03:36:03.399Z,1003.46
2017-12-09T03:36:57.455Z,1003.53
2017-12-09T03:36:58.050Z,1003.51
2017-12-09T03:36:58.650Z,1003.51
2017-12-09T03:36:59.252Z,1003.52
2017-12-09T03:36:59.850Z,1003.50
2017-12-09T03:37:00.449Z,1003.50
2017-12-09T03:37:01.050Z,1003.49
2017-12-09T03:37:55.128Z,1003.55
2017-12-09T03:37:55.703Z,1003.55
2017-12-09T03:37:56.301Z,1003.56
2017-12-09T03:37:56.902Z,1003.55
2017-12-09T03:37:57.501Z,1003.54
2017-12-09T03:37:58.102Z,1003.53
2017-12-09T03:37:58.702Z,1003.53
2017-12-09T03:38:52.760Z,1003.50
2017-12-09T03:38:53.355Z,1003.52
2017-12-09T03:38:53.952Z,1003.50
2017-12-09T03:38:54.554Z,1003.49
2017-12-09T03:38:55.152Z,1003.51
2017-12-09T03:38:55.754Z,1003.50
2017-12-09T03:38:56.352Z,1003.50
2017-12-09T03:39:50.411Z,1003.46
2017-12-09T03:39:51.006Z,1003.49
2017-12-09T03:39:51.605Z,1003.50
2017-12-09T03:39:52.206Z,1003.46
2017-12-09T03:39:52.806Z,1003.47
2017-12-09T03:39:53.405Z,1003.47
2017-12-09T03:39:54.005Z,1003.47
2017-12-09T03:40:48.062Z,1003.56
2017-12-09T03:40:48.658Z,1003.55
2017-12-09T03:40:49.292Z,1003.55
2017-12-09T03:40:49.857Z,1003.59
2017-12-09T03:40:50.457Z,1003.55
2017-12-09T03:40:51.056Z,1003.52
2017-12-09T03:40:51.657Z,1003.57
2017-12-09T03:41:45.712Z,1003.55
2017-12-09T03:41:46.310Z,1003.59
2017-12-09T03:41:46.909Z,1003.54
2017-12-09T03:41:47.508Z,1003.54
2017-12-09T03:41:48.108Z,1003.55
2017-12-09T03:41:48.708Z,1003.54
2017-12-09T03:41:49.308Z,1003.54
2017-12-09T03:42:43.365Z,1003.47
2017-12-09T03:42:43.962Z,1003.44
2017-12-09T03:42:44.562Z,1003.49
2017-12-09T03:42:45.161Z,1003.48
2017-12-09T03:42:45.761Z,1003.48
2017-12-09T03:42:46.361Z,1003.51
2017-12-09T03:42:46.960Z,1003.50
2017-12-09T03:43:41.048Z,1003.53
2017-12-09T03:43:41.613Z,1003.57
2017-12-09T03:43:42.211Z,1003.58
2017-12-09T03:43:42.812Z,1003.55
2017-12-09T03:43:43.412Z,1003.59
2017-12-09T03:43:44.012Z,1003.58
2017-12-09T03:43:44.611Z,1003.56
2017-12-09T03:44:38.669Z,1003.56
2017-12-09T03:44:39.269Z,1003.53
2017-12-09T03:44:39.866Z,1003.55
2017-12-09T03:44:40.467Z,1003.52
2017-12-09T03:44:41.064Z,1003.50
2017-12-09T03:44:41.663Z,1003.55
2017-12-09T03:44:42.264Z,1003.53
2017-12-09T03:45:35.808Z,1003.58
2017-12-09T03:45:36.406Z,1003.53
2017-12-09T03:45:37.006Z,1003.56
2017-12-09T03:45:37.605Z,1003.55
2017-12-09T03:45:38.205Z,1003.55
2017-12-09T03:45:38.804Z,1003.52
2017-12-09T03:45:39.405Z,1003.57
2017-12-09T03:45:40.007Z,1003.50
2017-12-09T03:46:33.971Z,1003.51
2017-12-09T03:46:34.574Z,1003.47
2017-12-09T03:46:35.168Z,1003.52